sensor_id;sensor_type;location;lat;lon;timestamp;P1;durP1;ratioP1;P2;durP2;ratioP2
22107;SDS011;11220;48.812;9.128;2023-12-20T00:00:00;0.17;;;0.17;;
22107;SDS011;11220;48.812;9.128;2023-12-20T00:02:26;0.40;;;0.20;;
22107;SDS011;11220;48.812;9.128;2023-12-20T00:04:51;0.20;;;0.17;;
22107;SDS011;11220;48.812;9.128;2023-12-20T00:07:17;0.20;;;0.20;;
22107;SDS011;11220;48.812;9.128;2023-12-20T00:09:42;0.35;;;0.30;;
22107;SDS011;11220;48.812;9.128;2023-12-20T00:12:08;0.20;;;0.20;;
22107;SDS011;11220;48.812;9.128;2023-12-20T00:14:33;0.20;;;0.20;;
22107;SDS011;11220;48.812;9.128;2023-12-20T00:16:59;0.38;;;0.22;;
22107;SDS011;11220;48.812;9.128;2023-12-20T00:19:24;0.22;;;0.20;;
22107;SDS011;11220;48.812;9.128;2023-12-20T00:21:50;0.22;;;0.20;;
22107;SDS011;11220;48.812;9.128;2023-12-20T00:24:15;0.28;;;0.22;;
22107;SDS011;11220;48.812;9.128;2023-12-20T00:26:41;0.22;;;0.22;;
22107;SDS011;11220;48.812;9.128;2023-12-20T00:29:07;0.10;;;0.10;;
22107;SDS011;11220;48.812;9.128;2023-12-20T00:31:33;0.70;;;0.20;;
22107;SDS011;11220;48.812;9.128;2023-12-20T00:33:58;0.13;;;0.10;;
22107;SDS011;11220;48.812;9.128;2023-12-20T00:36:24;0.20;;;0.20;;
22107;SDS011;11220;48.812;9.128;2023-12-20T00:38:49;0.20;;;0.20;;
22107;SDS011;11220;48.812;9.128;2023-12-20T00:41:16;0.10;;;0.10;;
22107;SDS011;11220;48.812;9.128;2023-12-20T00:43:41;0.30;;;0.20;;
22107;SDS011;11220;48.812;9.128;2023-12-20T00:46:07;0.30;;;0.30;;
22107;SDS011;11220;48.812;9.128;2023-12-20T00:48:33;0.20;;;0.20;;
22107;SDS011;11220;48.812;9.128;2023-12-20T00:50:58;0.20;;;0.20;;
22107;SDS011;11220;48.812;9.128;2023-12-20T00:53:24;0.10;;;0.10;;
22107;SDS011;11220;48.812;9.128;2023-12-20T00:55:51;0.20;;;0.13;;
22107;SDS011;11220;48.812;9.128;2023-12-20T00:58:17;0.20;;;0.20;;
22107;SDS011;11220;48.812;9.128;2023-12-20T01:00:42;0.10;;;0.10;;
22107;SDS011;11220;48.812;9.128;2023-12-20T01:03:08;0.15;;;0.10;;
22107;SDS011;11220;48.812;9.128;2023-12-20T01:05:34;0.10;;;0.10;;
22107;SDS011;11220;48.812;9.128;2023-12-20T01:08:00;0.20;;;0.20;;
22107;SDS011;11220;48.812;9.128;2023-12-20T01:10:27;0.20;;;0.20;;
22107;SDS011;11220;48.812;9.128;2023-12-20T01:12:54;0.20;;;0.20;;
22107;SDS011;11220;48.812;9.128;2023-12-20T01:15:20;0.20;;;0.20;;
22107;SDS011;11220;48.812;9.128;2023-12-20T01:17:45;0.15;;;0.10;;
22107;SDS011;11220;48.812;9.128;2023-12-20T01:20:11;0.10;;;0.10;;
22107;SDS011;11220;48.812;9.128;2023-12-20T01:22:36;0.22;;;0.17;;
22107;SDS011;11220;48.812;9.128;2023-12-20T01:25:02;0.20;;;0.10;;
22107;SDS011;11220;48.812;9.128;2023-12-20T01:27:27;0.10;;;0.10;;
22107;SDS011;11220;48.812;9.128;2023-12-20T01:29:53;0.17;;;0.10;;
22107;SDS011;11220;48.812;9.128;2023-12-20T01:32:19;0.20;;;0.10;;
22107;SDS011;11220;48.812;9.128;2023-12-20T01:34:45;0.10;;;0.10;;
22107;SDS011;11220;48.812;9.128;2023-12-20T01:37:10;0.10;;;0.10;;
22107;SDS011;11220;48.812;9.128;2023-12-20T01:39:36;0.10;;;0.10;;
22107;SDS011;11220;48.812;9.128;2023-12-20T01:42:01;0.10;;;0.10;;
22107;SDS011;11220;48.812;9.128;2023-12-20T01:44:27;0.20;;;0.20;;
22107;SDS011;11220;48.812;9.128;2023-12-20T01:46:52;0.10;;;0.10;;
22107;SDS011;11220;48.812;9.128;2023-12-20T01:49:19;0.10;;;0.10;;
22107;SDS011;11220;48.812;9.128;2023-12-20T01:51:45;0.43;;;0.20;;
22107;SDS011;11220;48.812;9.128;2023-12-20T01:54:11;0.20;;;0.20;;
22107;SDS011;11220;48.812;9.128;2023-12-20T01:56:38;0.10;;;0.10;;
22107;SDS011;11220;48.812;9.128;2023-12-20T01:59:04;0.10;;;0.10;;
22107;SDS011;11220;48.812;9.128;2023-12-20T02:01:31;0.20;;;0.20;;
22107;SDS011;11220;48.812;9.128;2023-12-20T02:03:57;0.13;;;0.10;;
22107;SDS011;11220;48.812;9.128;2023-12-20T02:06:23;0.30;;;0.10;;
22107;SDS011;11220;48.812;9.128;2023-12-20T02:08:54;0.10;;;0.10;;
22107;SDS011;11220;48.812;9.128;2023-12-20T02:11:19;0.10;;;0.10;;
22107;SDS011;11220;48.812;9.128;2023-12-20T02:13:46;0.10;;;0.10;;
22107;SDS011;11220;48.812;9.128;2023-12-20T02:16:11;0.28;;;0.17;;
22107;SDS011;11220;48.812;9.128;2023-12-20T02:18:37;0.00;;;0.00;;
22107;SDS011;11220;48.812;9.128;2023-12-20T02:21:04;0.10;;;0.10;;
22107;SDS011;11220;48.812;9.128;2023-12-20T02:23:30;0.13;;;0.13;;
22107;SDS011;11220;48.812;9.128;2023-12-20T02:25:56;0.10;;;0.10;;
22107;SDS011;11220;48.812;9.128;2023-12-20T02:28:21;0.20;;;0.20;;
22107;SDS011;11220;48.812;9.128;2023-12-20T02:30:48;0.20;;;0.10;;
22107;SDS011;11220;48.812;9.128;2023-12-20T02:33:14;0.20;;;0.20;;
22107;SDS011;11220;48.812;9.128;2023-12-20T02:35:40;0.20;;;0.17;;
22107;SDS011;11220;48.812;9.128;2023-12-20T02:38:06;0.10;;;0.10;;
22107;SDS011;11220;48.812;9.128;2023-12-20T02:40:32;0.20;;;0.10;;
22107;SDS011;11220;48.812;9.128;2023-12-20T02:42:57;0.20;;;0.10;;
22107;SDS011;11220;48.812;9.128;2023-12-20T02:45:23;0.30;;;0.20;;
22107;SDS011;11220;48.812;9.128;2023-12-20T02:47:48;0.10;;;0.10;;
22107;SDS011;11220;48.812;9.128;2023-12-20T02:50:20;0.10;;;0.10;;
22107;SDS011;11220;48.812;9.128;2023-12-20T02:52:46;0.10;;;0.10;;
22107;SDS011;11220;48.812;9.128;2023-12-20T02:55:11;0.10;;;0.10;;
22107;SDS011;11220;48.812;9.128;2023-12-20T02:57:37;0.00;;;0.00;;
22107;SDS011;11220;48.812;9.128;2023-12-20T03:00:06;0.10;;;0.10;;
22107;SDS011;11220;48.812;9.128;2023-12-20T03:02:34;0.00;;;0.00;;
22107;SDS011;11220;48.812;9.128;2023-12-20T03:04:59;0.10;;;0.10;;
22107;SDS011;11220;48.812;9.128;2023-12-20T03:07:25;0.20;;;0.10;;
22107;SDS011;11220;48.812;9.128;2023-12-20T03:09:50;0.15;;;0.15;;
22107;SDS011;11220;48.812;9.128;2023-12-20T03:12:16;0.10;;;0.10;;
22107;SDS011;11220;48.812;9.128;2023-12-20T03:14:41;0.10;;;0.10;;
22107;SDS011;11220;48.812;9.128;2023-12-20T03:17:08;0.10;;;0.10;;
22107;SDS011;11220;48.812;9.128;2023-12-20T03:19:34;0.10;;;0.10;;
22107;SDS011;11220;48.812;9.128;2023-12-20T03:21:59;0.20;;;0.20;;
22107;SDS011;11220;48.812;9.128;2023-12-20T03:24:26;0.20;;;0.13;;
22107;SDS011;11220;48.812;9.128;2023-12-20T03:26:51;0.20;;;0.20;;
22107;SDS011;11220;48.812;9.128;2023-12-20T03:29:17;0.10;;;0.10;;
22107;SDS011;11220;48.812;9.128;2023-12-20T03:31:42;0.10;;;0.10;;
22107;SDS011;11220;48.812;9.128;2023-12-20T03:34:08;0.10;;;0.10;;
22107;SDS011;11220;48.812;9.128;2023-12-20T03:36:33;0.10;;;0.10;;
22107;SDS011;11220;48.812;9.128;2023-12-20T03:38:59;0.10;;;0.10;;
22107;SDS011;11220;48.812;9.128;2023-12-20T03:41:24;0.10;;;0.10;;
22107;SDS011;11220;48.812;9.128;2023-12-20T03:43:50;0.10;;;0.10;;
22107;SDS011;11220;48.812;9.128;2023-12-20T03:46:16;0.03;;;0.03;;
22107;SDS011;11220;48.812;9.128;2023-12-20T03:48:42;0.10;;;0.10;;
22107;SDS011;11220;48.812;9.128;2023-12-20T03:51:07;0.10;;;0.10;;
22107;SDS011;11220;48.812;9.128;2023-12-20T03:53:33;0.00;;;0.00;;
22107;SDS011;11220;48.812;9.128;2023-12-20T03:55:58;0.00;;;0.00;;
22107;SDS011;11220;48.812;9.128;2023-12-20T03:58:24;0.10;;;0.10;;
22107;SDS011;11220;48.812;9.128;2023-12-20T04:00:50;0.10;;;0.08;;
22107;SDS011;11220;48.812;9.128;2023-12-20T04:03:15;0.10;;;0.10;;
22107;SDS011;11220;48.812;9.128;2023-12-20T04:05:41;0.10;;;0.00;;
22107;SDS011;11220;48.812;9.128;2023-12-20T04:08:07;0.10;;;0.10;;
22107;SDS011;11220;48.812;9.128;2023-12-20T04:10:32;0.20;;;0.10;;
22107;SDS011;11220;48.812;9.128;2023-12-20T04:12:58;0.00;;;0.00;;
22107;SDS011;11220;48.812;9.128;2023-12-20T04:15:23;0.10;;;0.00;;
22107;SDS011;11220;48.812;9.128;2023-12-20T04:17:49;0.10;;;0.00;;
22107;SDS011;11220;48.812;9.128;2023-12-20T04:20:14;0.00;;;0.00;;
22107;SDS011;11220;48.812;9.128;2023-12-20T04:22:40;0.10;;;0.00;;
22107;SDS011;11220;48.812;9.128;2023-12-20T04:25:12;0.00;;;0.00;;
22107;SDS011;11220;48.812;9.128;2023-12-20T04:27:38;0.10;;;0.10;;
22107;SDS011;11220;48.812;9.128;2023-12-20T04:30:03;0.10;;;0.10;;
22107;SDS011;11220;48.812;9.128;2023-12-20T04:32:29;0.10;;;0.10;;
22107;SDS011;11220;48.812;9.128;2023-12-20T04:34:56;0.00;;;0.00;;
22107;SDS011;11220;48.812;9.128;2023-12-20T04:37:21;0.10;;;0.10;;
22107;SDS011;11220;48.812;9.128;2023-12-20T04:39:47;0.03;;;0.00;;
22107;SDS011;11220;48.812;9.128;2023-12-20T04:42:13;0.00;;;0.00;;
22107;SDS011;11220;48.812;9.128;2023-12-20T04:44:38;0.10;;;0.10;;
22107;SDS011;11220;48.812;9.128;2023-12-20T04:47:04;0.10;;;0.00;;
22107;SDS011;11220;48.812;9.128;2023-12-20T04:49:29;0.00;;;0.00;;
22107;SDS011;11220;48.812;9.128;2023-12-20T04:51:55;0.10;;;0.10;;
22107;SDS011;11220;48.812;9.128;2023-12-20T04:54:21;0.00;;;0.00;;
22107;SDS011;11220;48.812;9.128;2023-12-20T04:56:47;0.00;;;0.00;;
22107;SDS011;11220;48.812;9.128;2023-12-20T04:59:12;0.00;;;0.00;;
22107;SDS011;11220;48.812;9.128;2023-12-20T05:01:38;0.03;;;0.00;;
22107;SDS011;11220;48.812;9.128;2023-12-20T05:04:03;0.10;;;0.05;;
22107;SDS011;11220;48.812;9.128;2023-12-20T05:06:29;0.00;;;0.00;;
22107;SDS011;11220;48.812;9.128;2023-12-20T05:08:54;0.00;;;0.00;;
22107;SDS011;11220;48.812;9.128;2023-12-20T05:11:20;0.00;;;0.00;;
22107;SDS011;11220;48.812;9.128;2023-12-20T05:13:45;0.00;;;0.00;;
22107;SDS011;11220;48.812;9.128;2023-12-20T05:16:11;0.10;;;0.10;;
22107;SDS011;11220;48.812;9.128;2023-12-20T05:18:39;0.00;;;0.00;;
22107;SDS011;11220;48.812;9.128;2023-12-20T05:21:04;0.00;;;0.00;;
22107;SDS011;11220;48.812;9.128;2023-12-20T05:23:30;0.00;;;0.00;;
22107;SDS011;11220;48.812;9.128;2023-12-20T05:25:55;0.00;;;0.00;;
22107;SDS011;11220;48.812;9.128;2023-12-20T05:28:21;0.08;;;0.00;;
22107;SDS011;11220;48.812;9.128;2023-12-20T05:30:46;0.10;;;0.00;;
22107;SDS011;11220;48.812;9.128;2023-12-20T05:33:12;0.00;;;0.00;;
22107;SDS011;11220;48.812;9.128;2023-12-20T05:35:37;0.00;;;0.00;;
22107;SDS011;11220;48.812;9.128;2023-12-20T05:38:03;0.00;;;0.00;;
22107;SDS011;11220;48.812;9.128;2023-12-20T05:40:28;0.00;;;0.00;;
22107;SDS011;11220;48.812;9.128;2023-12-20T05:42:54;0.00;;;0.00;;
22107;SDS011;11220;48.812;9.128;2023-12-20T05:45:19;0.00;;;0.00;;
22107;SDS011;11220;48.812;9.128;2023-12-20T05:47:45;0.00;;;0.00;;
22107;SDS011;11220;48.812;9.128;2023-12-20T05:50:10;0.00;;;0.00;;
22107;SDS011;11220;48.812;9.128;2023-12-20T05:52:36;0.00;;;0.00;;
22107;SDS011;11220;48.812;9.128;2023-12-20T05:55:01;0.00;;;0.00;;
22107;SDS011;11220;48.812;9.128;2023-12-20T05:57:27;0.00;;;0.00;;
22107;SDS011;11220;48.812;9.128;2023-12-20T05:59:52;0.00;;;0.00;;
22107;SDS011;11220;48.812;9.128;2023-12-20T06:02:18;0.00;;;0.00;;
22107;SDS011;11220;48.812;9.128;2023-12-20T06:04:44;0.20;;;0.00;;
22107;SDS011;11220;48.812;9.128;2023-12-20T06:07:13;0.00;;;0.00;;
22107;SDS011;11220;48.812;9.128;2023-12-20T06:09:39;0.00;;;0.00;;
22107;SDS011;11220;48.812;9.128;2023-12-20T06:12:04;0.00;;;0.00;;
22107;SDS011;11220;48.812;9.128;2023-12-20T06:14:30;0.00;;;0.00;;
22107;SDS011;11220;48.812;9.128;2023-12-20T06:16:56;0.00;;;0.00;;
22107;SDS011;11220;48.812;9.128;2023-12-20T06:19:22;0.00;;;0.00;;
22107;SDS011;11220;48.812;9.128;2023-12-20T06:21:48;0.00;;;0.00;;
22107;SDS011;11220;48.812;9.128;2023-12-20T06:24:13;0.00;;;0.00;;
22107;SDS011;11220;48.812;9.128;2023-12-20T06:26:39;0.00;;;0.00;;
22107;SDS011;11220;48.812;9.128;2023-12-20T06:29:04;0.00;;;0.00;;
22107;SDS011;11220;48.812;9.128;2023-12-20T06:31:30;0.00;;;0.00;;
22107;SDS011;11220;48.812;9.128;2023-12-20T06:33:57;0.20;;;0.00;;
22107;SDS011;11220;48.812;9.128;2023-12-20T06:36:24;0.00;;;0.00;;
22107;SDS011;11220;48.812;9.128;2023-12-20T06:38:51;0.00;;;0.00;;
22107;SDS011;11220;48.812;9.128;2023-12-20T06:41:16;0.00;;;0.00;;
22107;SDS011;11220;48.812;9.128;2023-12-20T06:43:42;0.00;;;0.00;;
22107;SDS011;11220;48.812;9.128;2023-12-20T06:46:07;0.00;;;0.00;;
22107;SDS011;11220;48.812;9.128;2023-12-20T06:48:33;0.00;;;0.00;;
22107;SDS011;11220;48.812;9.128;2023-12-20T06:51:00;0.00;;;0.00;;
22107;SDS011;11220;48.812;9.128;2023-12-20T06:53:27;0.00;;;0.00;;
22107;SDS011;11220;48.812;9.128;2023-12-20T06:55:52;0.00;;;0.00;;
22107;SDS011;11220;48.812;9.128;2023-12-20T06:58:18;0.00;;;0.00;;
22107;SDS011;11220;48.812;9.128;2023-12-20T07:00:44;0.20;;;0.00;;
22107;SDS011;11220;48.812;9.128;2023-12-20T07:03:09;0.00;;;0.00;;
22107;SDS011;11220;48.812;9.128;2023-12-20T07:05:35;0.00;;;0.00;;
22107;SDS011;11220;48.812;9.128;2023-12-20T07:08:00;0.00;;;0.00;;
22107;SDS011;11220;48.812;9.128;2023-12-20T07:10:27;0.00;;;0.00;;
22107;SDS011;11220;48.812;9.128;2023-12-20T07:12:52;0.10;;;0.00;;
22107;SDS011;11220;48.812;9.128;2023-12-20T07:15:20;0.00;;;0.00;;
22107;SDS011;11220;48.812;9.128;2023-12-20T07:17:46;0.00;;;0.00;;
22107;SDS011;11220;48.812;9.128;2023-12-20T07:20:11;0.10;;;0.00;;
22107;SDS011;11220;48.812;9.128;2023-12-20T07:22:37;0.00;;;0.00;;
22107;SDS011;11220;48.812;9.128;2023-12-20T07:25:04;0.00;;;0.00;;
22107;SDS011;11220;48.812;9.128;2023-12-20T07:27:29;0.00;;;0.00;;
22107;SDS011;11220;48.812;9.128;2023-12-20T07:29:55;0.00;;;0.00;;
22107;SDS011;11220;48.812;9.128;2023-12-20T07:32:20;0.00;;;0.00;;
22107;SDS011;11220;48.812;9.128;2023-12-20T07:34:46;0.00;;;0.00;;
22107;SDS011;11220;48.812;9.128;2023-12-20T07:37:12;0.00;;;0.00;;
22107;SDS011;11220;48.812;9.128;2023-12-20T07:39:39;0.00;;;0.00;;
22107;SDS011;11220;48.812;9.128;2023-12-20T07:42:05;0.00;;;0.00;;
22107;SDS011;11220;48.812;9.128;2023-12-20T07:44:31;0.00;;;0.00;;
22107;SDS011;11220;48.812;9.128;2023-12-20T07:46:56;0.00;;;0.00;;
22107;SDS011;11220;48.812;9.128;2023-12-20T07:49:22;0.00;;;0.00;;
22107;SDS011;11220;48.812;9.128;2023-12-20T07:51:48;0.03;;;0.00;;
22107;SDS011;11220;48.812;9.128;2023-12-20T07:54:15;0.00;;;0.00;;
22107;SDS011;11220;48.812;9.128;2023-12-20T07:56:40;0.00;;;0.00;;
22107;SDS011;11220;48.812;9.128;2023-12-20T07:59:06;0.00;;;0.00;;
22107;SDS011;11220;48.812;9.128;2023-12-20T08:01:32;0.00;;;0.00;;
22107;SDS011;11220;48.812;9.128;2023-12-20T08:03:58;0.00;;;0.00;;
22107;SDS011;11220;48.812;9.128;2023-12-20T08:06:23;0.00;;;0.00;;
22107;SDS011;11220;48.812;9.128;2023-12-20T08:08:51;0.00;;;0.00;;
22107;SDS011;11220;48.812;9.128;2023-12-20T08:11:17;0.00;;;0.00;;
22107;SDS011;11220;48.812;9.128;2023-12-20T08:13:42;0.10;;;0.10;;
22107;SDS011;11220;48.812;9.128;2023-12-20T08:16:08;0.00;;;0.00;;
22107;SDS011;11220;48.812;9.128;2023-12-20T08:18:34;0.00;;;0.00;;
22107;SDS011;11220;48.812;9.128;2023-12-20T08:20:59;0.10;;;0.00;;
22107;SDS011;11220;48.812;9.128;2023-12-20T08:23:25;0.00;;;0.00;;
22107;SDS011;11220;48.812;9.128;2023-12-20T08:25:50;0.00;;;0.00;;
22107;SDS011;11220;48.812;9.128;2023-12-20T08:28:16;0.15;;;0.05;;
22107;SDS011;11220;48.812;9.128;2023-12-20T08:30:41;0.00;;;0.00;;
22107;SDS011;11220;48.812;9.128;2023-12-20T08:33:07;0.10;;;0.00;;
22107;SDS011;11220;48.812;9.128;2023-12-20T08:35:37;0.00;;;0.00;;
22107;SDS011;11220;48.812;9.128;2023-12-20T08:38:04;0.00;;;0.00;;
22107;SDS011;11220;48.812;9.128;2023-12-20T08:40:29;0.00;;;0.00;;
22107;SDS011;11220;48.812;9.128;2023-12-20T08:42:55;0.05;;;0.00;;
22107;SDS011;11220;48.812;9.128;2023-12-20T08:45:21;0.00;;;0.00;;
22107;SDS011;11220;48.812;9.128;2023-12-20T08:47:46;0.00;;;0.00;;
22107;SDS011;11220;48.812;9.128;2023-12-20T08:50:13;0.08;;;0.00;;
22107;SDS011;11220;48.812;9.128;2023-12-20T08:52:39;0.00;;;0.00;;
22107;SDS011;11220;48.812;9.128;2023-12-20T08:55:05;0.10;;;0.05;;
22107;SDS011;11220;48.812;9.128;2023-12-20T08:57:31;0.10;;;0.00;;
22107;SDS011;11220;48.812;9.128;2023-12-20T08:59:57;0.05;;;0.00;;
22107;SDS011;11220;48.812;9.128;2023-12-20T09:02:22;0.08;;;0.00;;
22107;SDS011;11220;48.812;9.128;2023-12-20T09:04:48;0.05;;;0.00;;
22107;SDS011;11220;48.812;9.128;2023-12-20T09:07:23;0.10;;;0.10;;
22107;SDS011;11220;48.812;9.128;2023-12-20T09:09:50;0.00;;;0.00;;
22107;SDS011;11220;48.812;9.128;2023-12-20T09:12:16;0.20;;;0.10;;
22107;SDS011;11220;48.812;9.128;2023-12-20T09:14:43;0.25;;;0.00;;
22107;SDS011;11220;48.812;9.128;2023-12-20T09:17:09;0.00;;;0.00;;
22107;SDS011;11220;48.812;9.128;2023-12-20T09:19:36;0.00;;;0.00;;
22107;SDS011;11220;48.812;9.128;2023-12-20T09:22:02;0.00;;;0.00;;
22107;SDS011;11220;48.812;9.128;2023-12-20T09:24:27;0.13;;;0.00;;
22107;SDS011;11220;48.812;9.128;2023-12-20T09:26:53;0.10;;;0.00;;
22107;SDS011;11220;48.812;9.128;2023-12-20T09:29:18;0.05;;;0.00;;
22107;SDS011;11220;48.812;9.128;2023-12-20T09:31:44;0.25;;;0.10;;
22107;SDS011;11220;48.812;9.128;2023-12-20T09:34:11;0.00;;;0.00;;
22107;SDS011;11220;48.812;9.128;2023-12-20T09:36:37;0.40;;;0.10;;
22107;SDS011;11220;48.812;9.128;2023-12-20T09:39:05;0.05;;;0.05;;
22107;SDS011;11220;48.812;9.128;2023-12-20T09:41:31;0.15;;;0.00;;
22107;SDS011;11220;48.812;9.128;2023-12-20T09:44:02;0.35;;;0.00;;
22107;SDS011;11220;48.812;9.128;2023-12-20T09:46:28;0.38;;;0.10;;
22107;SDS011;11220;48.812;9.128;2023-12-20T09:48:58;0.00;;;0.00;;
22107;SDS011;11220;48.812;9.128;2023-12-20T09:51:25;0.10;;;0.00;;
22107;SDS011;11220;48.812;9.128;2023-12-20T09:53:53;0.10;;;0.10;;
22107;SDS011;11220;48.812;9.128;2023-12-20T09:56:20;0.00;;;0.00;;
22107;SDS011;11220;48.812;9.128;2023-12-20T09:58:46;0.10;;;0.10;;
22107;SDS011;11220;48.812;9.128;2023-12-20T10:01:12;0.70;;;0.00;;
22107;SDS011;11220;48.812;9.128;2023-12-20T10:03:39;0.17;;;0.08;;
22107;SDS011;11220;48.812;9.128;2023-12-20T10:06:05;0.30;;;0.20;;
22107;SDS011;11220;48.812;9.128;2023-12-20T10:08:32;0.22;;;0.10;;
22107;SDS011;11220;48.812;9.128;2023-12-20T10:10:57;0.20;;;0.00;;
22107;SDS011;11220;48.812;9.128;2023-12-20T10:13:27;0.00;;;0.00;;
22107;SDS011;11220;48.812;9.128;2023-12-20T10:15:54;0.20;;;0.00;;
22107;SDS011;11220;48.812;9.128;2023-12-20T10:18:20;0.35;;;0.10;;
22107;SDS011;11220;48.812;9.128;2023-12-20T10:20:46;0.20;;;0.10;;
22107;SDS011;11220;48.812;9.128;2023-12-20T10:23:12;0.10;;;0.00;;
22107;SDS011;11220;48.812;9.128;2023-12-20T10:25:38;0.30;;;0.08;;
22107;SDS011;11220;48.812;9.128;2023-12-20T10:28:08;0.10;;;0.00;;
22107;SDS011;11220;48.812;9.128;2023-12-20T10:30:35;0.00;;;0.00;;
22107;SDS011;11220;48.812;9.128;2023-12-20T10:33:01;0.40;;;0.05;;
22107;SDS011;11220;48.812;9.128;2023-12-20T10:35:26;0.10;;;0.00;;
22107;SDS011;11220;48.812;9.128;2023-12-20T10:37:53;0.13;;;0.10;;
22107;SDS011;11220;48.812;9.128;2023-12-20T10:40:21;0.10;;;0.00;;
22107;SDS011;11220;48.812;9.128;2023-12-20T10:42:48;0.00;;;0.00;;
22107;SDS011;11220;48.812;9.128;2023-12-20T10:45:16;0.10;;;0.00;;
22107;SDS011;11220;48.812;9.128;2023-12-20T10:47:42;0.10;;;0.10;;
22107;SDS011;11220;48.812;9.128;2023-12-20T10:50:11;0.00;;;0.00;;
22107;SDS011;11220;48.812;9.128;2023-12-20T10:52:37;0.10;;;0.10;;
22107;SDS011;11220;48.812;9.128;2023-12-20T10:55:03;0.20;;;0.10;;
22107;SDS011;11220;48.812;9.128;2023-12-20T10:57:29;0.00;;;0.00;;
22107;SDS011;11220;48.812;9.128;2023-12-20T10:59:55;0.10;;;0.10;;
22107;SDS011;11220;48.812;9.128;2023-12-20T11:04:52;0.32;;;0.00;;
22107;SDS011;11220;48.812;9.128;2023-12-20T11:07:25;0.00;;;0.00;;
22107;SDS011;11220;48.812;9.128;2023-12-20T11:09:59;0.10;;;0.10;;
22107;SDS011;11220;48.812;9.128;2023-12-20T11:12:32;0.10;;;0.10;;
22107;SDS011;11220;48.812;9.128;2023-12-20T11:15:04;0.00;;;0.00;;
22107;SDS011;11220;48.812;9.128;2023-12-20T11:17:31;0.00;;;0.00;;
22107;SDS011;11220;48.812;9.128;2023-12-20T11:22:35;0.00;;;0.00;;
22107;SDS011;11220;48.812;9.128;2023-12-20T11:25:06;0.00;;;0.00;;
22107;SDS011;11220;48.812;9.128;2023-12-20T11:27:34;0.10;;;0.00;;
22107;SDS011;11220;48.812;9.128;2023-12-20T11:30:02;0.15;;;0.00;;
22107;SDS011;11220;48.812;9.128;2023-12-20T11:32:31;0.00;;;0.00;;
22107;SDS011;11220;48.812;9.128;2023-12-20T11:35:00;0.10;;;0.10;;
22107;SDS011;11220;48.812;9.128;2023-12-20T11:37:41;0.10;;;0.10;;
22107;SDS011;11220;48.812;9.128;2023-12-20T11:40:14;0.10;;;0.00;;
22107;SDS011;11220;48.812;9.128;2023-12-20T11:42:41;0.13;;;0.00;;
22107;SDS011;11220;48.812;9.128;2023-12-20T11:45:09;0.35;;;0.20;;
22107;SDS011;11220;48.812;9.128;2023-12-20T11:47:47;0.10;;;0.10;;
22107;SDS011;11220;48.812;9.128;2023-12-20T11:50:19;0.10;;;0.00;;
22107;SDS011;11220;48.812;9.128;2023-12-20T11:55:12;0.10;;;0.10;;
22107;SDS011;11220;48.812;9.128;2023-12-20T11:57:37;0.10;;;0.10;;
22107;SDS011;11220;48.812;9.128;2023-12-20T12:00:03;0.20;;;0.10;;
22107;SDS011;11220;48.812;9.128;2023-12-20T12:02:31;0.20;;;0.17;;
22107;SDS011;11220;48.812;9.128;2023-12-20T12:04:56;0.43;;;0.30;;
22107;SDS011;11220;48.812;9.128;2023-12-20T12:07:23;0.10;;;0.10;;
22107;SDS011;11220;48.812;9.128;2023-12-20T12:09:49;0.65;;;0.10;;
22107;SDS011;11220;48.812;9.128;2023-12-20T12:12:15;0.43;;;0.20;;
22107;SDS011;11220;48.812;9.128;2023-12-20T12:14:41;0.30;;;0.13;;
22107;SDS011;11220;48.812;9.128;2023-12-20T12:17:11;0.22;;;0.17;;
22107;SDS011;11220;48.812;9.128;2023-12-20T12:19:38;0.25;;;0.15;;
22107;SDS011;11220;48.812;9.128;2023-12-20T12:22:07;0.10;;;0.10;;
22107;SDS011;11220;48.812;9.128;2023-12-20T12:24:42;0.50;;;0.10;;
22107;SDS011;11220;48.812;9.128;2023-12-20T12:27:08;0.73;;;0.17;;
22107;SDS011;11220;48.812;9.128;2023-12-20T12:29:34;0.20;;;0.10;;
22107;SDS011;11220;48.812;9.128;2023-12-20T12:32:00;1.00;;;0.20;;
22107;SDS011;11220;48.812;9.128;2023-12-20T12:34:29;0.22;;;0.20;;
22107;SDS011;11220;48.812;9.128;2023-12-20T12:36:55;0.25;;;0.15;;
22107;SDS011;11220;48.812;9.128;2023-12-20T12:39:22;0.43;;;0.20;;
22107;SDS011;11220;48.812;9.128;2023-12-20T12:41:49;0.20;;;0.20;;
22107;SDS011;11220;48.812;9.128;2023-12-20T12:44:15;0.10;;;0.10;;
22107;SDS011;11220;48.812;9.128;2023-12-20T12:46:40;0.10;;;0.10;;
22107;SDS011;11220;48.812;9.128;2023-12-20T12:49:06;0.40;;;0.20;;
22107;SDS011;11220;48.812;9.128;2023-12-20T12:51:32;0.28;;;0.10;;
22107;SDS011;11220;48.812;9.128;2023-12-20T12:53:57;0.52;;;0.20;;
22107;SDS011;11220;48.812;9.128;2023-12-20T12:56:23;0.40;;;0.30;;
22107;SDS011;11220;48.812;9.128;2023-12-20T12:58:48;0.30;;;0.20;;
22107;SDS011;11220;48.812;9.128;2023-12-20T13:01:14;0.20;;;0.20;;
22107;SDS011;11220;48.812;9.128;2023-12-20T13:03:40;0.85;;;0.30;;
22107;SDS011;11220;48.812;9.128;2023-12-20T13:06:05;0.20;;;0.10;;
22107;SDS011;11220;48.812;9.128;2023-12-20T13:08:33;0.30;;;0.15;;
22107;SDS011;11220;48.812;9.128;2023-12-20T13:10:59;0.20;;;0.10;;
22107;SDS011;11220;48.812;9.128;2023-12-20T13:13:27;0.22;;;0.20;;
22107;SDS011;11220;48.812;9.128;2023-12-20T13:15:52;0.20;;;0.10;;
22107;SDS011;11220;48.812;9.128;2023-12-20T13:18:20;0.20;;;0.15;;
22107;SDS011;11220;48.812;9.128;2023-12-20T13:20:46;0.85;;;0.10;;
22107;SDS011;11220;48.812;9.128;2023-12-20T13:23:12;0.28;;;0.13;;
22107;SDS011;11220;48.812;9.128;2023-12-20T13:25:38;0.55;;;0.30;;
22107;SDS011;11220;48.812;9.128;2023-12-20T13:28:04;0.10;;;0.10;;
22107;SDS011;11220;48.812;9.128;2023-12-20T13:30:30;0.20;;;0.20;;
22107;SDS011;11220;48.812;9.128;2023-12-20T13:32:56;0.20;;;0.17;;
22107;SDS011;11220;48.812;9.128;2023-12-20T13:35:21;0.32;;;0.10;;
22107;SDS011;11220;48.812;9.128;2023-12-20T13:37:50;0.20;;;0.10;;
22107;SDS011;11220;48.812;9.128;2023-12-20T13:40:22;0.40;;;0.10;;
22107;SDS011;11220;48.812;9.128;2023-12-20T13:42:48;0.15;;;0.10;;
22107;SDS011;11220;48.812;9.128;2023-12-20T13:45:14;0.20;;;0.10;;
22107;SDS011;11220;48.812;9.128;2023-12-20T13:47:42;0.30;;;0.10;;
22107;SDS011;11220;48.812;9.128;2023-12-20T13:50:07;0.40;;;0.13;;
22107;SDS011;11220;48.812;9.128;2023-12-20T13:52:38;0.40;;;0.17;;
22107;SDS011;11220;48.812;9.128;2023-12-20T13:55:04;0.20;;;0.20;;
22107;SDS011;11220;48.812;9.128;2023-12-20T13:57:32;0.85;;;0.10;;
22107;SDS011;11220;48.812;9.128;2023-12-20T13:59:58;0.30;;;0.20;;
22107;SDS011;11220;48.812;9.128;2023-12-20T14:02:23;0.30;;;0.20;;
22107;SDS011;11220;48.812;9.128;2023-12-20T14:04:49;0.30;;;0.10;;
22107;SDS011;11220;48.812;9.128;2023-12-20T14:07:14;0.17;;;0.15;;
22107;SDS011;11220;48.812;9.128;2023-12-20T14:09:40;0.68;;;0.20;;
22107;SDS011;11220;48.812;9.128;2023-12-20T14:12:10;0.30;;;0.13;;
22107;SDS011;11220;48.812;9.128;2023-12-20T14:14:36;0.30;;;0.10;;
22107;SDS011;11220;48.812;9.128;2023-12-20T14:17:02;0.20;;;0.10;;
22107;SDS011;11220;48.812;9.128;2023-12-20T14:19:28;0.60;;;0.10;;
22107;SDS011;11220;48.812;9.128;2023-12-20T14:21:54;0.20;;;0.08;;
22107;SDS011;11220;48.812;9.128;2023-12-20T14:24:19;0.25;;;0.10;;
22107;SDS011;11220;48.812;9.128;2023-12-20T14:26:45;0.43;;;0.10;;
22107;SDS011;11220;48.812;9.128;2023-12-20T14:29:10;0.10;;;0.08;;
22107;SDS011;11220;48.812;9.128;2023-12-20T14:31:36;0.30;;;0.30;;
22107;SDS011;11220;48.812;9.128;2023-12-20T14:34:03;0.10;;;0.10;;
22107;SDS011;11220;48.812;9.128;2023-12-20T14:36:29;0.10;;;0.10;;
22107;SDS011;11220;48.812;9.128;2023-12-20T14:38:56;0.15;;;0.10;;
22107;SDS011;11220;48.812;9.128;2023-12-20T14:41:21;0.20;;;0.10;;
22107;SDS011;11220;48.812;9.128;2023-12-20T14:43:49;0.10;;;0.00;;
22107;SDS011;11220;48.812;9.128;2023-12-20T14:46:16;0.25;;;0.15;;
22107;SDS011;11220;48.812;9.128;2023-12-20T14:48:43;0.00;;;0.00;;